sensor_id;sensor_type;location;lat;lon;timestamp;temperature;humidity
78988;DHT22;74752;44.786;37.680;2024-03-06T00:00:22;7.75;81.62
78988;DHT22;74752;44.786;37.680;2024-03-06T00:01:27;7.73;81.69
78988;DHT22;74752;44.786;37.680;2024-03-06T00:02:32;7.73;81.64
78988;DHT22;74752;44.786;37.680;2024-03-06T00:03:34;7.74;81.60
78988;DHT22;74752;44.786;37.680;2024-03-06T00:04:38;7.75;81.53
78988;DHT22;74752;44.786;37.680;2024-03-06T00:05:40;7.74;81.47
78988;DHT22;74752;44.786;37.680;2024-03-06T00:06:42;7.73;81.65
78988;DHT22;74752;44.786;37.680;2024-03-06T00:07:45;7.75;81.68
78988;DHT22;74752;44.786;37.680;2024-03-06T00:08:48;7.76;81.34
78988;DHT22;74752;44.786;37.680;2024-03-06T00:09:50;7.72;81.59
78988;DHT22;74752;44.786;37.680;2024-03-06T00:10:52;7.72;81.67
78988;DHT22;74752;44.786;37.680;2024-03-06T00:11:56;7.70;81.59
78988;DHT22;74752;44.786;37.680;2024-03-06T00:12:59;7.69;81.73
78988;DHT22;74752;44.786;37.680;2024-03-06T00:14:05;7.67;81.67
78988;DHT22;74752;44.786;37.680;2024-03-06T00:15:08;7.64;81.75
78988;DHT22;74752;44.786;37.680;2024-03-06T00:16:10;7.61;81.99
78988;DHT22;74752;44.786;37.680;2024-03-06T00:17:14;7.59;81.97
78988;DHT22;74752;44.786;37.680;2024-03-06T00:18:17;7.60;82.14
78988;DHT22;74752;44.786;37.680;2024-03-06T00:19:25;7.60;82.03
78988;DHT22;74752;44.786;37.680;2024-03-06T00:20:28;7.62;82.11
78988;DHT22;74752;44.786;37.680;2024-03-06T00:21:30;7.65;82.15
78988;DHT22;74752;44.786;37.680;2024-03-06T00:22:32;7.70;82.02
78988;DHT22;74752;44.786;37.680;2024-03-06T00:23:36;7.70;81.72
78988;DHT22;74752;44.786;37.680;2024-03-06T00:24:41;7.71;81.72
78988;DHT22;74752;44.786;37.680;2024-03-06T00:25:49;7.71;81.58
78988;DHT22;74752;44.786;37.680;2024-03-06T00:26:51;7.67;81.57
78988;DHT22;74752;44.786;37.680;2024-03-06T00:27:58;7.64;81.75
78988;DHT22;74752;44.786;37.680;2024-03-06T00:29:03;7.60;82.01
78988;DHT22;74752;44.786;37.680;2024-03-06T00:30:06;7.60;81.83
78988;DHT22;74752;44.786;37.680;2024-03-06T00:31:09;7.56;81.97
78988;DHT22;74752;44.786;37.680;2024-03-06T00:32:11;7.58;81.94
78988;DHT22;74752;44.786;37.680;2024-03-06T00:33:15;7.56;82.01
78988;DHT22;74752;44.786;37.680;2024-03-06T00:34:19;7.54;82.07
78988;DHT22;74752;44.786;37.680;2024-03-06T00:35:24;7.53;82.12
78988;DHT22;74752;44.786;37.680;2024-03-06T00:36:27;7.49;82.30
78988;DHT22;74752;44.786;37.680;2024-03-06T00:37:29;7.49;82.32
78988;DHT22;74752;44.786;37.680;2024-03-06T00:38:31;7.49;82.41
78988;DHT22;74752;44.786;37.680;2024-03-06T00:39:35;7.47;82.31
78988;DHT22;74752;44.786;37.680;2024-03-06T00:40:42;7.47;82.35
78988;DHT22;74752;44.786;37.680;2024-03-06T00:41:45;7.46;82.40
78988;DHT22;74752;44.786;37.680;2024-03-06T00:42:48;7.46;82.43
78988;DHT22;74752;44.786;37.680;2024-03-06T00:43:50;7.44;82.56
78988;DHT22;74752;44.786;37.680;2024-03-06T00:44:52;7.45;82.81
78988;DHT22;74752;44.786;37.680;2024-03-06T00:45:55;7.46;82.48
78988;DHT22;74752;44.786;37.680;2024-03-06T00:46:58;7.52;82.33
78988;DHT22;74752;44.786;37.680;2024-03-06T00:48:00;7.55;82.29
78988;DHT22;74752;44.786;37.680;2024-03-06T00:49:02;7.57;82.13
78988;DHT22;74752;44.786;37.680;2024-03-06T00:50:08;7.58;81.99
78988;DHT22;74752;44.786;37.680;2024-03-06T00:51:10;7.55;82.09
78988;DHT22;74752;44.786;37.680;2024-03-06T00:52:14;7.55;82.10
78988;DHT22;74752;44.786;37.680;2024-03-06T00:53:17;7.52;82.26
78988;DHT22;74752;44.786;37.680;2024-03-06T00:54:20;7.52;82.23
78988;DHT22;74752;44.786;37.680;2024-03-06T00:55:25;7.54;82.21
78988;DHT22;74752;44.786;37.680;2024-03-06T00:56:28;7.56;82.17
78988;DHT22;74752;44.786;37.680;2024-03-06T00:57:29;7.60;81.82
78988;DHT22;74752;44.786;37.680;2024-03-06T00:58:34;7.62;81.68
78988;DHT22;74752;44.786;37.680;2024-03-06T00:59:36;7.60;81.66
78988;DHT22;74752;44.786;37.680;2024-03-06T01:00:39;7.57;81.99
78988;DHT22;74752;44.786;37.680;2024-03-06T01:01:41;7.57;82.30
78988;DHT22;74752;44.786;37.680;2024-03-06T01:02:45;7.58;82.16
78988;DHT22;74752;44.786;37.680;2024-03-06T01:03:48;7.60;82.26
78988;DHT22;74752;44.786;37.680;2024-03-06T01:04:50;7.64;82.20
78988;DHT22;74752;44.786;37.680;2024-03-06T01:05:51;7.63;81.62
78988;DHT22;74752;44.786;37.680;2024-03-06T01:06:57;7.62;82.06
78988;DHT22;74752;44.786;37.680;2024-03-06T01:07:59;7.62;82.06
78988;DHT22;74752;44.786;37.680;2024-03-06T01:09:01;7.68;81.84
78988;DHT22;74752;44.786;37.680;2024-03-06T01:10:05;7.68;81.85
78988;DHT22;74752;44.786;37.680;2024-03-06T01:11:08;7.72;81.81
78988;DHT22;74752;44.786;37.680;2024-03-06T01:12:13;7.70;81.47
78988;DHT22;74752;44.786;37.680;2024-03-06T01:13:15;7.70;81.76
78988;DHT22;74752;44.786;37.680;2024-03-06T01:14:18;7.71;81.74
78988;DHT22;74752;44.786;37.680;2024-03-06T01:15:20;7.76;81.81
78988;DHT22;74752;44.786;37.680;2024-03-06T01:16:22;7.76;81.25
78988;DHT22;74752;44.786;37.680;2024-03-06T01:17:25;7.74;81.46
78988;DHT22;74752;44.786;37.680;2024-03-06T01:18:28;7.73;81.69
78988;DHT22;74752;44.786;37.680;2024-03-06T01:19:31;7.74;81.22
78988;DHT22;74752;44.786;37.680;2024-03-06T01:20:35;7.72;81.43
78988;DHT22;74752;44.786;37.680;2024-03-06T01:21:38;7.70;81.36
78988;DHT22;74752;44.786;37.680;2024-03-06T01:22:40;7.72;81.30
78988;DHT22;74752;44.786;37.680;2024-03-06T01:23:42;7.68;81.20
78988;DHT22;74752;44.786;37.680;2024-03-06T01:24:45;7.65;81.37
78988;DHT22;74752;44.786;37.680;2024-03-06T01:25:50;7.65;81.39
78988;DHT22;74752;44.786;37.680;2024-03-06T01:26:52;7.64;81.35
78988;DHT22;74752;44.786;37.680;2024-03-06T01:27:55;7.60;81.38
78988;DHT22;74752;44.786;37.680;2024-03-06T01:28:58;7.56;81.62
78988;DHT22;74752;44.786;37.680;2024-03-06T01:30:02;7.50;81.66
78988;DHT22;74752;44.786;37.680;2024-03-06T01:31:06;7.48;82.13
78988;DHT22;74752;44.786;37.680;2024-03-06T01:32:09;7.45;82.20
78988;DHT22;74752;44.786;37.680;2024-03-06T01:33:31;7.43;82.36
78988;DHT22;74752;44.786;37.680;2024-03-06T01:34:36;7.41;82.44
78988;DHT22;74752;44.786;37.680;2024-03-06T01:35:39;7.39;82.45
78988;DHT22;74752;44.786;37.680;2024-03-06T01:36:41;7.38;82.49
78988;DHT22;74752;44.786;37.680;2024-03-06T01:37:46;7.33;82.74
78988;DHT22;74752;44.786;37.680;2024-03-06T01:38:54;7.31;82.71
78988;DHT22;74752;44.786;37.680;2024-03-06T01:39:57;7.30;82.78
78988;DHT22;74752;44.786;37.680;2024-03-06T01:40:59;7.31;82.91
78988;DHT22;74752;44.786;37.680;2024-03-06T01:42:02;7.31;82.82
78988;DHT22;74752;44.786;37.680;2024-03-06T01:43:05;7.28;82.78
78988;DHT22;74752;44.786;37.680;2024-03-06T01:44:10;7.25;83.03
78988;DHT22;74752;44.786;37.680;2024-03-06T01:45:16;7.20;83.32
78988;DHT22;74752;44.786;37.680;2024-03-06T01:46:19;7.18;83.43
78988;DHT22;74752;44.786;37.680;2024-03-06T01:47:21;7.19;83.13
78988;DHT22;74752;44.786;37.680;2024-03-06T01:48:30;7.14;83.51
78988;DHT22;74752;44.786;37.680;2024-03-06T01:49:39;7.15;83.70
78988;DHT22;74752;44.786;37.680;2024-03-06T01:50:42;7.14;83.69
78988;DHT22;74752;44.786;37.680;2024-03-06T01:51:51;7.16;83.63
78988;DHT22;74752;44.786;37.680;2024-03-06T01:52:55;7.14;83.55
78988;DHT22;74752;44.786;37.680;2024-03-06T01:54:03;7.13;83.54
78988;DHT22;74752;44.786;37.680;2024-03-06T01:55:07;7.11;83.67
78988;DHT22;74752;44.786;37.680;2024-03-06T01:56:10;7.10;83.74
78988;DHT22;74752;44.786;37.680;2024-03-06T01:57:17;7.08;83.96
78988;DHT22;74752;44.786;37.680;2024-03-06T01:58:20;7.08;83.88
78988;DHT22;74752;44.786;37.680;2024-03-06T01:59:25;7.08;83.65
78988;DHT22;74752;44.786;37.680;2024-03-06T02:00:28;7.05;83.58
78988;DHT22;74752;44.786;37.680;2024-03-06T02:01:32;7.02;83.96
78988;DHT22;74752;44.786;37.680;2024-03-06T02:02:35;7.00;84.07
78988;DHT22;74752;44.786;37.680;2024-03-06T02:03:37;6.98;84.13
78988;DHT22;74752;44.786;37.680;2024-03-06T02:04:40;6.97;84.22
78988;DHT22;74752;44.786;37.680;2024-03-06T02:05:42;6.94;84.35
78988;DHT22;74752;44.786;37.680;2024-03-06T02:06:45;6.94;84.32
78988;DHT22;74752;44.786;37.680;2024-03-06T02:07:49;6.93;84.25
78988;DHT22;74752;44.786;37.680;2024-03-06T02:08:51;6.94;84.21
78988;DHT22;74752;44.786;37.680;2024-03-06T02:09:53;6.94;84.17
78988;DHT22;74752;44.786;37.680;2024-03-06T02:10:58;6.91;84.29
78988;DHT22;74752;44.786;37.680;2024-03-06T02:12:06;6.90;84.43
78988;DHT22;74752;44.786;37.680;2024-03-06T02:13:09;6.88;84.45
78988;DHT22;74752;44.786;37.680;2024-03-06T02:14:17;6.87;84.54
78988;DHT22;74752;44.786;37.680;2024-03-06T02:15:20;6.86;84.49
78988;DHT22;74752;44.786;37.680;2024-03-06T02:16:22;6.84;84.62
78988;DHT22;74752;44.786;37.680;2024-03-06T02:17:25;6.84;84.56
78988;DHT22;74752;44.786;37.680;2024-03-06T02:18:28;6.85;84.53
78988;DHT22;74752;44.786;37.680;2024-03-06T02:19:40;6.83;84.45
78988;DHT22;74752;44.786;37.680;2024-03-06T02:20:45;6.81;84.56
78988;DHT22;74752;44.786;37.680;2024-03-06T02:21:51;6.82;84.65
78988;DHT22;74752;44.786;37.680;2024-03-06T02:22:55;6.83;84.60
78988;DHT22;74752;44.786;37.680;2024-03-06T02:24:01;6.81;84.55
78988;DHT22;74752;44.786;37.680;2024-03-06T02:25:06;6.78;84.82
78988;DHT22;74752;44.786;37.680;2024-03-06T02:26:10;6.75;84.89
78988;DHT22;74752;44.786;37.680;2024-03-06T02:27:12;6.72;85.06
78988;DHT22;74752;44.786;37.680;2024-03-06T02:28:14;6.73;85.28
78988;DHT22;74752;44.786;37.680;2024-03-06T02:29:17;6.79;85.35
78988;DHT22;74752;44.786;37.680;2024-03-06T02:30:22;6.81;84.98
78988;DHT22;74752;44.786;37.680;2024-03-06T02:31:29;6.82;84.93
78988;DHT22;74752;44.786;37.680;2024-03-06T02:32:31;6.85;84.90
78988;DHT22;74752;44.786;37.680;2024-03-06T02:33:40;6.88;84.76
78988;DHT22;74752;44.786;37.680;2024-03-06T02:34:42;6.88;84.74
78988;DHT22;74752;44.786;37.680;2024-03-06T02:35:45;6.91;84.96
78988;DHT22;74752;44.786;37.680;2024-03-06T02:36:48;6.97;84.72
78988;DHT22;74752;44.786;37.680;2024-03-06T02:37:50;7.00;84.41
78988;DHT22;74752;44.786;37.680;2024-03-06T02:38:55;7.02;84.23
78988;DHT22;74752;44.786;37.680;2024-03-06T02:39:58;7.02;84.21
78988;DHT22;74752;44.786;37.680;2024-03-06T02:41:00;7.01;84.07
78988;DHT22;74752;44.786;37.680;2024-03-06T02:42:03;7.03;84.43
78988;DHT22;74752;44.786;37.680;2024-03-06T02:43:08;7.10;84.35
78988;DHT22;74752;44.786;37.680;2024-03-06T02:44:10;7.14;83.84
78988;DHT22;74752;44.786;37.680;2024-03-06T02:45:12;7.16;83.49
78988;DHT22;74752;44.786;37.680;2024-03-06T02:46:15;7.16;83.69
78988;DHT22;74752;44.786;37.680;2024-03-06T02:47:21;7.18;83.72
78988;DHT22;74752;44.786;37.680;2024-03-06T02:48:29;7.18;83.36
78988;DHT22;74752;44.786;37.680;2024-03-06T02:49:31;7.18;83.52
78988;DHT22;74752;44.786;37.680;2024-03-06T02:50:38;7.20;83.47
78988;DHT22;74752;44.786;37.680;2024-03-06T02:51:42;7.17;83.45
78988;DHT22;74752;44.786;37.680;2024-03-06T02:52:45;7.18;83.52
78988;DHT22;74752;44.786;37.680;2024-03-06T02:53:48;7.19;83.23
78988;DHT22;74752;44.786;37.680;2024-03-06T02:54:51;7.17;83.20
78988;DHT22;74752;44.786;37.680;2024-03-06T02:55:55;7.17;83.11
78988;DHT22;74752;44.786;37.680;2024-03-06T02:56:59;7.13;83.34
78988;DHT22;74752;44.786;37.680;2024-03-06T02:58:04;7.15;83.83
78988;DHT22;74752;44.786;37.680;2024-03-06T02:59:09;7.19;83.47
78988;DHT22;74752;44.786;37.680;2024-03-06T03:00:11;7.17;83.50
78988;DHT22;74752;44.786;37.680;2024-03-06T03:01:15;7.15;83.48
78988;DHT22;74752;44.786;37.680;2024-03-06T03:02:18;7.15;83.62
78988;DHT22;74752;44.786;37.680;2024-03-06T03:03:21;7.14;83.45
78988;DHT22;74752;44.786;37.680;2024-03-06T03:04:24;7.13;83.53
78988;DHT22;74752;44.786;37.680;2024-03-06T03:05:28;7.17;83.28
78988;DHT22;74752;44.786;37.680;2024-03-06T03:06:30;7.19;83.29
78988;DHT22;74752;44.786;37.680;2024-03-06T03:07:32;7.22;83.26
78988;DHT22;74752;44.786;37.680;2024-03-06T03:08:36;7.22;83.06
78988;DHT22;74752;44.786;37.680;2024-03-06T03:09:38;7.22;83.14
78988;DHT22;74752;44.786;37.680;2024-03-06T03:10:40;7.22;83.24
78988;DHT22;74752;44.786;37.680;2024-03-06T03:11:43;7.25;83.28
78988;DHT22;74752;44.786;37.680;2024-03-06T03:12:46;7.26;83.12
78988;DHT22;74752;44.786;37.680;2024-03-06T03:13:57;7.28;82.96
78988;DHT22;74752;44.786;37.680;2024-03-06T03:15:02;7.31;82.83
78988;DHT22;74752;44.786;37.680;2024-03-06T03:16:05;7.32;82.99
78988;DHT22;74752;44.786;37.680;2024-03-06T03:17:09;7.34;82.87
78988;DHT22;74752;44.786;37.680;2024-03-06T03:18:11;7.35;83.02
78988;DHT22;74752;44.786;37.680;2024-03-06T03:19:15;7.37;82.82
78988;DHT22;74752;44.786;37.680;2024-03-06T03:20:20;7.42;82.81
78988;DHT22;74752;44.786;37.680;2024-03-06T03:21:26;7.44;82.96
78988;DHT22;74752;44.786;37.680;2024-03-06T03:22:28;7.46;82.90
78988;DHT22;74752;44.786;37.680;2024-03-06T03:23:38;7.52;82.68
78988;DHT22;74752;44.786;37.680;2024-03-06T03:24:44;7.58;82.55
78988;DHT22;74752;44.786;37.680;2024-03-06T03:25:48;7.63;82.18
78988;DHT22;74752;44.786;37.680;2024-03-06T03:26:50;7.70;81.76
78988;DHT22;74752;44.786;37.680;2024-03-06T03:27:52;7.71;81.57
78988;DHT22;74752;44.786;37.680;2024-03-06T03:28:58;7.72;81.34
78988;DHT22;74752;44.786;37.680;2024-03-06T03:30:00;7.76;81.22
78988;DHT22;74752;44.786;37.680;2024-03-06T03:31:02;7.75;81.34
78988;DHT22;74752;44.786;37.680;2024-03-06T03:32:05;7.77;81.44
78988;DHT22;74752;44.786;37.680;2024-03-06T03:33:08;7.82;81.10
78988;DHT22;74752;44.786;37.680;2024-03-06T03:34:15;7.83;81.16
78988;DHT22;74752;44.786;37.680;2024-03-06T03:35:17;7.86;80.96
78988;DHT22;74752;44.786;37.680;2024-03-06T03:36:26;7.88;80.89
78988;DHT22;74752;44.786;37.680;2024-03-06T03:37:28;7.90;81.02
78988;DHT22;74752;44.786;37.680;2024-03-06T03:38:37;7.91;80.55
78988;DHT22;74752;44.786;37.680;2024-03-06T03:39:44;7.90;80.81
78988;DHT22;74752;44.786;37.680;2024-03-06T03:40:47;7.87;80.71
78988;DHT22;74752;44.786;37.680;2024-03-06T03:41:49;7.86;80.80
78988;DHT22;74752;44.786;37.680;2024-03-06T03:42:51;7.81;80.49
78988;DHT22;74752;44.786;37.680;2024-03-06T03:43:57;7.74;80.54
78988;DHT22;74752;44.786;37.680;2024-03-06T03:44:59;7.71;80.89
78988;DHT22;74752;44.786;37.680;2024-03-06T03:46:01;7.69;80.72
78988;DHT22;74752;44.786;37.680;2024-03-06T03:47:06;7.71;80.42
78988;DHT22;74752;44.786;37.680;2024-03-06T03:48:08;7.71;81.48
78988;DHT22;74752;44.786;37.680;2024-03-06T03:49:17;7.68;81.02
78988;DHT22;74752;44.786;37.680;2024-03-06T03:50:20;7.67;81.10
78988;DHT22;74752;44.786;37.680;2024-03-06T03:51:22;7.69;81.16
78988;DHT22;74752;44.786;37.680;2024-03-06T03:52:25;7.70;81.29
78988;DHT22;74752;44.786;37.680;2024-03-06T03:53:31;7.71;81.68
78988;DHT22;74752;44.786;37.680;2024-03-06T03:54:34;7.74;80.96
78988;DHT22;74752;44.786;37.680;2024-03-06T03:55:40;7.76;81.01
78988;DHT22;74752;44.786;37.680;2024-03-06T03:56:43;7.76;80.20
78988;DHT22;74752;44.786;37.680;2024-03-06T03:57:45;7.72;81.08
78988;DHT22;74752;44.786;37.680;2024-03-06T03:58:55;7.75;80.87
78988;DHT22;74752;44.786;37.680;2024-03-06T03:59:58;7.76;80.78
78988;DHT22;74752;44.786;37.680;2024-03-06T04:01:00;7.79;80.96
78988;DHT22;74752;44.786;37.680;2024-03-06T04:02:01;7.83;80.84
78988;DHT22;74752;44.786;37.680;2024-03-06T04:03:10;7.88;80.65
78988;DHT22;74752;44.786;37.680;2024-03-06T04:04:18;7.86;80.65
78988;DHT22;74752;44.786;37.680;2024-03-06T04:05:21;7.96;81.02
78988;DHT22;74752;44.786;37.680;2024-03-06T04:06:25;8.06;79.88
78988;DHT22;74752;44.786;37.680;2024-03-06T04:07:27;8.06;79.96
78988;DHT22;74752;44.786;37.680;2024-03-06T04:08:29;8.09;79.87
78988;DHT22;74752;44.786;37.680;2024-03-06T04:09:37;8.26;80.47
78988;DHT22;74752;44.786;37.680;2024-03-06T04:10:42;8.46;79.57
78988;DHT22;74752;44.786;37.680;2024-03-06T04:11:47;8.47;78.83
78988;DHT22;74752;44.786;37.680;2024-03-06T04:12:49;8.50;78.60
78988;DHT22;74752;44.786;37.680;2024-03-06T04:13:55;8.52;78.37
78988;DHT22;74752;44.786;37.680;2024-03-06T04:14:58;8.55;78.50
78988;DHT22;74752;44.786;37.680;2024-03-06T04:16:00;8.61;78.30
78988;DHT22;74752;44.786;37.680;2024-03-06T04:17:02;8.65;78.29
78988;DHT22;74752;44.786;37.680;2024-03-06T04:18:08;8.79;78.08
78988;DHT22;74752;44.786;37.680;2024-03-06T04:19:12;8.91;77.58
78988;DHT22;74752;44.786;37.680;2024-03-06T04:20:15;9.01;77.02
78988;DHT22;74752;44.786;37.680;2024-03-06T04:21:18;9.06;76.90
78988;DHT22;74752;44.786;37.680;2024-03-06T04:22:20;9.01;76.04
78988;DHT22;74752;44.786;37.680;2024-03-06T04:23:22;9.00;76.18
78988;DHT22;74752;44.786;37.680;2024-03-06T04:24:26;9.01;76.05
78988;DHT22;74752;44.786;37.680;2024-03-06T04:25:29;9.02;76.17
78988;DHT22;74752;44.786;37.680;2024-03-06T04:26:31;9.04;75.95
78988;DHT22;74752;44.786;37.680;2024-03-06T04:27:36;9.15;75.63
78988;DHT22;74752;44.786;37.680;2024-03-06T04:28:42;9.24;75.15
78988;DHT22;74752;44.786;37.680;2024-03-06T04:29:47;9.31;75.07
78988;DHT22;74752;44.786;37.680;2024-03-06T04:30:52;9.39;74.67
78988;DHT22;74752;44.786;37.680;2024-03-06T04:31:55;9.44;74.36
78988;DHT22;74752;44.786;37.680;2024-03-06T04:33:00;9.47;74.34
78988;DHT22;74752;44.786;37.680;2024-03-06T04:34:05;9.61;73.94
78988;DHT22;74752;44.786;37.680;2024-03-06T04:35:08;9.70;73.56
78988;DHT22;74752;44.786;37.680;2024-03-06T04:36:18;9.83;72.98
78988;DHT22;74752;44.786;37.680;2024-03-06T04:37:20;9.88;72.99
78988;DHT22;74752;44.786;37.680;2024-03-06T04:38:22;9.94;72.58
78988;DHT22;74752;44.786;37.680;2024-03-06T04:39:25;9.98;72.37
78988;DHT22;74752;44.786;37.680;2024-03-06T04:40:32;9.99;72.46
78988;DHT22;74752;44.786;37.680;2024-03-06T04:41:37;10.07;72.10
78988;DHT22;74752;44.786;37.680;2024-03-06T04:42:41;10.10;72.25
78988;DHT22;74752;44.786;37.680;2024-03-06T04:43:45;10.21;72.03
78988;DHT22;74752;44.786;37.680;2024-03-06T04:44:52;10.34;71.45
78988;DHT22;74752;44.786;37.680;2024-03-06T04:45:55;10.43;70.96
78988;DHT22;74752;44.786;37.680;2024-03-06T04:47:00;10.41;71.39
78988;DHT22;74752;44.786;37.680;2024-03-06T04:48:02;10.41;71.47
78988;DHT22;74752;44.786;37.680;2024-03-06T04:49:08;10.44;70.91
78988;DHT22;74752;44.786;37.680;2024-03-06T04:50:13;10.43;70.85
78988;DHT22;74752;44.786;37.680;2024-03-06T04:51:19;10.49;71.00
78988;DHT22;74752;44.786;37.680;2024-03-06T04:52:21;10.56;70.80
78988;DHT22;74752;44.786;37.680;2024-03-06T04:53:28;10.63;70.60
78988;DHT22;74752;44.786;37.680;2024-03-06T04:54:30;10.68;70.20
78988;DHT22;74752;44.786;37.680;2024-03-06T04:55:32;10.85;70.25
78988;DHT22;74752;44.786;37.680;2024-03-06T04:56:35;11.04;69.13
78988;DHT22;74752;44.786;37.680;2024-03-06T04:57:38;11.25;68.36
78988;DHT22;74752;44.786;37.680;2024-03-06T04:58:42;11.52;67.35
78988;DHT22;74752;44.786;37.680;2024-03-06T04:59:45;11.64;66.91
78988;DHT22;74752;44.786;37.680;2024-03-06T05:00:47;11.74;66.62
78988;DHT22;74752;44.786;37.680;2024-03-06T05:01:52;11.78;66.45
78988;DHT22;74752;44.786;37.680;2024-03-06T05:02:55;11.76;66.49
78988;DHT22;74752;44.786;37.680;2024-03-06T05:03:58;11.73;66.71
78988;DHT22;74752;44.786;37.680;2024-03-06T05:05:00;11.69;66.28
78988;DHT22;74752;44.786;37.680;2024-03-06T05:06:20;11.74;66.20
78988;DHT22;74752;44.786;37.680;2024-03-06T05:07:29;11.90;65.53
78988;DHT22;74752;44.786;37.680;2024-03-06T05:08:31;12.13;64.40
78988;DHT22;74752;44.786;37.680;2024-03-06T05:09:38;12.38;62.89
78988;DHT22;74752;44.786;37.680;2024-03-06T05:10:39;12.63;62.88
78988;DHT22;74752;44.786;37.680;2024-03-06T05:11:42;12.86;62.61
78988;DHT22;74752;44.786;37.680;2024-03-06T05:12:45;13.14;61.40
78988;DHT22;74752;44.786;37.680;2024-03-06T05:13:48;13.35;60.83
78988;DHT22;74752;44.786;37.680;2024-03-06T05:14:52;13.59;60.10
78988;DHT22;74752;44.786;37.680;2024-03-06T05:16:03;13.79;60.36
78988;DHT22;74752;44.786;37.680;2024-03-06T05:17:17;13.98;59.34
78988;DHT22;74752;44.786;37.680;2024-03-06T05:18:20;13.99;58.12
78988;DHT22;74752;44.786;37.680;2024-03-06T05:19:25;14.04;58.16
78988;DHT22;74752;44.786;37.680;2024-03-06T05:20:35;14.23;57.87
78988;DHT22;74752;44.786;37.680;2024-03-06T05:21:40;14.47;57.19
78988;DHT22;74752;44.786;37.680;2024-03-06T05:22:46;14.64;56.59
78988;DHT22;74752;44.786;37.680;2024-03-06T05:23:57;14.64;56.84
78988;DHT22;74752;44.786;37.680;2024-03-06T05:25:01;14.55;56.28
78988;DHT22;74752;44.786;37.680;2024-03-06T05:26:06;14.52;56.49
78988;DHT22;74752;44.786;37.680;2024-03-06T05:27:10;14.48;56.26
78988;DHT22;74752;44.786;37.680;2024-03-06T05:28:19;14.43;56.57
78988;DHT22;74752;44.786;37.680;2024-03-06T05:29:21;14.43;56.80
78988;DHT22;74752;44.786;37.680;2024-03-06T05:30:23;14.42;57.23
78988;DHT22;74752;44.786;37.680;2024-03-06T05:31:25;14.49;56.87
78988;DHT22;74752;44.786;37.680;2024-03-06T05:32:28;14.54;56.84
78988;DHT22;74752;44.786;37.680;2024-03-06T05:33:30;14.55;56.58
78988;DHT22;74752;44.786;37.680;2024-03-06T05:34:35;14.48;56.51
78988;DHT22;74752;44.786;37.680;2024-03-06T05:35:37;14.52;56.50
78988;DHT22;74752;44.786;37.680;2024-03-06T05:36:41;14.50;56.57
78988;DHT22;74752;44.786;37.680;2024-03-06T05:37:45;14.41;56.87
78988;DHT22;74752;44.786;37.680;2024-03-06T05:38:48;14.44;56.90
78988;DHT22;74752;44.786;37.680;2024-03-06T05:39:53;14.47;56.56
78988;DHT22;74752;44.786;37.680;2024-03-06T05:41:00;14.48;56.73
78988;DHT22;74752;44.786;37.680;2024-03-06T05:42:03;14.55;56.54
78988;DHT22;74752;44.786;37.680;2024-03-06T05:43:05;14.75;55.90
78988;DHT22;74752;44.786;37.680;2024-03-06T05:44:08;15.01;55.55
78988;DHT22;74752;44.786;37.680;2024-03-06T05:45:16;15.00;55.12
78988;DHT22;74752;44.786;37.680;2024-03-06T05:46:25;15.06;55.19
78988;DHT22;74752;44.786;37.680;2024-03-06T05:47:33;15.19;54.95
78988;DHT22;74752;44.786;37.680;2024-03-06T05:48:36;15.32;54.36
78988;DHT22;74752;44.786;37.680;2024-03-06T05:49:38;15.32;53.50
78988;DHT22;74752;44.786;37.680;2024-03-06T05:50:47;15.32;53.83
78988;DHT22;74752;44.786;37.680;2024-03-06T05:51:51;15.39;53.81
78988;DHT22;74752;44.786;37.680;2024-03-06T05:52:57;15.38;53.47
78988;DHT22;74752;44.786;37.680;2024-03-06T05:54:02;15.39;53.52
78988;DHT22;74752;44.786;37.680;2024-03-06T05:55:13;15.32;54.07
78988;DHT22;74752;44.786;37.680;2024-03-06T05:56:19;15.33;54.00
78988;DHT22;74752;44.786;37.680;2024-03-06T05:57:25;15.27;53.95
78988;DHT22;74752;44.786;37.680;2024-03-06T05:58:30;15.22;54.00
78988;DHT22;74752;44.786;37.680;2024-03-06T05:59:35;15.22;53.97
78988;DHT22;74752;44.786;37.680;2024-03-06T06:00:37;15.27;53.78
78988;DHT22;74752;44.786;37.680;2024-03-06T06:01:39;15.29;54.01
78988;DHT22;74752;44.786;37.680;2024-03-06T06:02:41;15.25;53.82
78988;DHT22;74752;44.786;37.680;2024-03-06T06:03:47;15.28;54.01
78988;DHT22;74752;44.786;37.680;2024-03-06T06:04:52;15.30;53.06
78988;DHT22;74752;44.786;37.680;2024-03-06T06:05:55;15.27;52.53
78988;DHT22;74752;44.786;37.680;2024-03-06T06:06:57;15.22;52.58
78988;DHT22;74752;44.786;37.680;2024-03-06T06:08:04;15.10;52.63
78988;DHT22;74752;44.786;37.680;2024-03-06T06:09:09;15.02;52.82
78988;DHT22;74752;44.786;37.680;2024-03-06T06:10:17;15.00;53.52
78988;DHT22;74752;44.786;37.680;2024-03-06T06:11:22;15.01;53.53
78988;DHT22;74752;44.786;37.680;2024-03-06T06:12:26;15.01;53.36
78988;DHT22;74752;44.786;37.680;2024-03-06T06:13:31;15.00;53.88
78988;DHT22;74752;44.786;37.680;2024-03-06T06:14:34;14.93;53.73
78988;DHT22;74752;44.786;37.680;2024-03-06T06:15:38;14.86;54.02
78988;DHT22;74752;44.786;37.680;2024-03-06T06:16:42;14.81;54.39
78988;DHT22;74752;44.786;37.680;2024-03-06T06:17:44;14.84;53.74
78988;DHT22;74752;44.786;37.680;2024-03-06T06:18:48;14.84;54.18
78988;DHT22;74752;44.786;37.680;2024-03-06T06:19:50;14.84;53.81
78988;DHT22;74752;44.786;37.680;2024-03-06T06:20:52;14.88;55.17
78988;DHT22;74752;44.786;37.680;2024-03-06T06:22:14;14.80;55.79
78988;DHT22;74752;44.786;37.680;2024-03-06T06:23:17;14.77;55.95
78988;DHT22;74752;44.786;37.680;2024-03-06T06:24:20;14.88;56.67
78988;DHT22;74752;44.786;37.680;2024-03-06T06:25:25;14.87;55.76
78988;DHT22;74752;44.786;37.680;2024-03-06T06:26:30;14.78;55.99
78988;DHT22;74752;44.786;37.680;2024-03-06T06:27:32;14.68;56.61
78988;DHT22;74752;44.786;37.680;2024-03-06T06:28:35;14.55;57.10
78988;DHT22;74752;44.786;37.680;2024-03-06T06:29:41;14.45;57.08
78988;DHT22;74752;44.786;37.680;2024-03-06T06:30:46;14.43;57.18
78988;DHT22;74752;44.786;37.680;2024-03-06T06:31:49;14.39;57.69
78988;DHT22;74752;44.786;37.680;2024-03-06T06:32:54;14.40;57.80
78988;DHT22;74752;44.786;37.680;2024-03-06T06:33:56;14.39;58.00
78988;DHT22;74752;44.786;37.680;2024-03-06T06:34:59;14.40;57.89
78988;DHT22;74752;44.786;37.680;2024-03-06T06:36:01;14.40;57.89
78988;DHT22;74752;44.786;37.680;2024-03-06T06:37:12;14.37;57.95
78988;DHT22;74752;44.786;37.680;2024-03-06T06:38:15;14.38;58.27
78988;DHT22;74752;44.786;37.680;2024-03-06T06:39:17;14.37;58.02
78988;DHT22;74752;44.786;37.680;2024-03-06T06:40:19;14.40;57.86
78988;DHT22;74752;44.786;37.680;2024-03-06T06:41:21;14.41;57.55
78988;DHT22;74752;44.786;37.680;2024-03-06T06:42:26;14.40;57.98
78988;DHT22;74752;44.786;37.680;2024-03-06T06:43:28;14.39;57.99